sensor_id;sensor_type;location;lat;lon;timestamp;P1;durP1;ratioP1;P2;durP2;ratioP2
75616;SDS011;64200;55.426;37.758;2023-02-15T00:02:32;1.90;;;0.57;;
75616;SDS011;64200;55.426;37.758;2023-02-15T00:07:33;3.37;;;0.80;;
75616;SDS011;64200;55.426;37.758;2023-02-15T00:12:34;3.38;;;0.60;;
75616;SDS011;64200;55.426;37.758;2023-02-15T00:17:34;1.95;;;0.80;;
75616;SDS011;64200;55.426;37.758;2023-02-15T00:22:35;3.53;;;0.83;;
75616;SDS011;64200;55.426;37.758;2023-02-15T00:27:35;4.78;;;0.70;;
75616;SDS011;64200;55.426;37.758;2023-02-15T00:32:36;1.93;;;0.63;;
75616;SDS011;64200;55.426;37.758;2023-02-15T00:37:36;3.03;;;0.50;;
75616;SDS011;64200;55.426;37.758;2023-02-15T00:42:37;4.63;;;0.65;;
75616;SDS011;64200;55.426;37.758;2023-02-15T00:47:37;2.65;;;0.65;;
75616;SDS011;64200;55.426;37.758;2023-02-15T00:52:38;2.43;;;0.63;;
75616;SDS011;64200;55.426;37.758;2023-02-15T00:57:38;0.80;;;0.40;;
75616;SDS011;64200;55.426;37.758;2023-02-15T01:02:39;3.37;;;0.63;;
75616;SDS011;64200;55.426;37.758;2023-02-15T01:07:39;2.23;;;1.13;;
75616;SDS011;64200;55.426;37.758;2023-02-15T01:12:40;1.30;;;0.25;;
75616;SDS011;64200;55.426;37.758;2023-02-15T01:17:40;1.35;;;0.57;;
75616;SDS011;64200;55.426;37.758;2023-02-15T01:22:41;1.52;;;0.82;;
75616;SDS011;64200;55.426;37.758;2023-02-15T01:27:41;0.60;;;0.40;;
75616;SDS011;64200;55.426;37.758;2023-02-15T01:32:43;3.10;;;0.80;;
75616;SDS011;64200;55.426;37.758;2023-02-15T01:37:43;4.38;;;0.60;;
75616;SDS011;64200;55.426;37.758;2023-02-15T01:42:44;1.30;;;0.50;;
75616;SDS011;64200;55.426;37.758;2023-02-15T01:47:47;4.60;;;0.80;;
75616;SDS011;64200;55.426;37.758;2023-02-15T01:52:59;1.42;;;0.50;;
75616;SDS011;64200;55.426;37.758;2023-02-15T01:58:05;4.22;;;1.00;;
75616;SDS011;64200;55.426;37.758;2023-02-15T02:03:06;2.72;;;0.70;;
75616;SDS011;64200;55.426;37.758;2023-02-15T02:08:07;0.93;;;0.30;;
75616;SDS011;64200;55.426;37.758;2023-02-15T02:13:11;1.98;;;0.70;;
75616;SDS011;64200;55.426;37.758;2023-02-15T02:18:15;3.13;;;0.80;;
75616;SDS011;64200;55.426;37.758;2023-02-15T02:39:35;0.75;;;0.40;;
75616;SDS011;64200;55.426;37.758;2023-02-15T02:44:49;1.63;;;0.70;;
75616;SDS011;64200;55.426;37.758;2023-02-15T02:50:02;3.47;;;0.57;;
75616;SDS011;64200;55.426;37.758;2023-02-15T02:55:07;2.03;;;0.50;;
75616;SDS011;64200;55.426;37.758;2023-02-15T03:00:11;2.05;;;0.52;;
75616;SDS011;64200;55.426;37.758;2023-02-15T03:05:15;2.10;;;0.68;;
75616;SDS011;64200;55.426;37.758;2023-02-15T03:10:20;2.13;;;0.80;;
75616;SDS011;64200;55.426;37.758;2023-02-15T03:15:30;1.35;;;0.20;;
75616;SDS011;64200;55.426;37.758;2023-02-15T03:20:53;2.60;;;0.52;;
75616;SDS011;64200;55.426;37.758;2023-02-15T03:25:57;2.35;;;0.50;;
75616;SDS011;64200;55.426;37.758;2023-02-15T03:31:01;5.25;;;1.25;;
75616;SDS011;64200;55.426;37.758;2023-02-15T03:36:06;3.70;;;0.68;;
75616;SDS011;64200;55.426;37.758;2023-02-15T03:41:19;0.85;;;0.50;;
75616;SDS011;64200;55.426;37.758;2023-02-15T03:46:46;2.97;;;0.70;;
75616;SDS011;64200;55.426;37.758;2023-02-15T03:51:51;2.75;;;0.73;;
75616;SDS011;64200;55.426;37.758;2023-02-15T03:56:55;0.95;;;0.50;;
75616;SDS011;64200;55.426;37.758;2023-02-15T04:02:21;3.20;;;0.70;;
75616;SDS011;64200;55.426;37.758;2023-02-15T04:07:27;1.65;;;0.73;;
75616;SDS011;64200;55.426;37.758;2023-02-15T04:12:28;2.13;;;0.63;;
75616;SDS011;64200;55.426;37.758;2023-02-15T04:17:28;1.70;;;0.90;;
75616;SDS011;64200;55.426;37.758;2023-02-15T04:22:29;3.00;;;0.95;;
75616;SDS011;64200;55.426;37.758;2023-02-15T04:27:49;3.85;;;1.15;;
75616;SDS011;64200;55.426;37.758;2023-02-15T04:32:51;5.88;;;1.10;;
75616;SDS011;64200;55.426;37.758;2023-02-15T04:37:53;2.28;;;0.82;;
75616;SDS011;64200;55.426;37.758;2023-02-15T04:42:53;4.73;;;1.10;;
75616;SDS011;64200;55.426;37.758;2023-02-15T04:47:54;1.70;;;0.67;;
75616;SDS011;64200;55.426;37.758;2023-02-15T04:52:54;3.23;;;0.70;;
75616;SDS011;64200;55.426;37.758;2023-02-15T04:57:55;1.30;;;0.53;;
75616;SDS011;64200;55.426;37.758;2023-02-15T05:02:55;4.67;;;0.70;;
75616;SDS011;64200;55.426;37.758;2023-02-15T05:07:56;2.83;;;1.20;;
75616;SDS011;64200;55.426;37.758;2023-02-15T05:12:56;1.10;;;0.68;;
75616;SDS011;64200;55.426;37.758;2023-02-15T05:17:57;4.80;;;1.20;;
75616;SDS011;64200;55.426;37.758;2023-02-15T05:22:57;2.80;;;1.00;;
75616;SDS011;64200;55.426;37.758;2023-02-15T05:27:58;2.13;;;0.88;;
75616;SDS011;64200;55.426;37.758;2023-02-15T05:33:17;3.30;;;1.10;;
75616;SDS011;64200;55.426;37.758;2023-02-15T05:38:19;5.40;;;1.00;;
75616;SDS011;64200;55.426;37.758;2023-02-15T05:43:20;4.55;;;1.10;;
75616;SDS011;64200;55.426;37.758;2023-02-15T05:48:21;3.45;;;1.00;;
75616;SDS011;64200;55.426;37.758;2023-02-15T05:53:23;2.45;;;1.05;;
75616;SDS011;64200;55.426;37.758;2023-02-15T05:58:27;2.90;;;1.00;;
75616;SDS011;64200;55.426;37.758;2023-02-15T06:03:29;3.45;;;0.90;;
75616;SDS011;64200;55.426;37.758;2023-02-15T06:08:31;1.43;;;0.80;;
75616;SDS011;64200;55.426;37.758;2023-02-15T06:13:32;7.00;;;1.08;;
75616;SDS011;64200;55.426;37.758;2023-02-15T06:18:33;4.28;;;1.52;;
75616;SDS011;64200;55.426;37.758;2023-02-15T06:23:34;2.95;;;1.05;;
75616;SDS011;64200;55.426;37.758;2023-02-15T06:28:34;3.17;;;1.10;;
75616;SDS011;64200;55.426;37.758;2023-02-15T06:33:35;1.58;;;0.65;;
75616;SDS011;64200;55.426;37.758;2023-02-15T06:38:35;3.85;;;1.10;;
75616;SDS011;64200;55.426;37.758;2023-02-15T06:43:36;6.50;;;1.17;;
75616;SDS011;64200;55.426;37.758;2023-02-15T06:48:37;3.33;;;0.93;;
75616;SDS011;64200;55.426;37.758;2023-02-15T06:53:37;3.22;;;1.60;;
75616;SDS011;64200;55.426;37.758;2023-02-15T06:58:38;5.10;;;1.37;;
75616;SDS011;64200;55.426;37.758;2023-02-15T07:03:40;2.30;;;0.75;;
75616;SDS011;64200;55.426;37.758;2023-02-15T07:08:40;1.57;;;0.67;;
75616;SDS011;64200;55.426;37.758;2023-02-15T07:13:41;2.83;;;1.00;;
75616;SDS011;64200;55.426;37.758;2023-02-15T07:18:42;3.92;;;1.30;;
75616;SDS011;64200;55.426;37.758;2023-02-15T07:23:43;3.30;;;1.70;;
75616;SDS011;64200;55.426;37.758;2023-02-15T07:28:43;2.47;;;1.43;;
75616;SDS011;64200;55.426;37.758;2023-02-15T07:33:44;2.47;;;1.30;;
75616;SDS011;64200;55.426;37.758;2023-02-15T07:38:45;4.05;;;1.70;;
75616;SDS011;64200;55.426;37.758;2023-02-15T07:43:45;2.17;;;1.20;;
75616;SDS011;64200;55.426;37.758;2023-02-15T07:48:46;6.30;;;1.92;;
75616;SDS011;64200;55.426;37.758;2023-02-15T07:53:47;5.55;;;1.90;;
75616;SDS011;64200;55.426;37.758;2023-02-15T07:58:47;3.92;;;1.58;;
75616;SDS011;64200;55.426;37.758;2023-02-15T08:03:51;6.70;;;1.90;;
75616;SDS011;64200;55.426;37.758;2023-02-15T08:08:52;5.70;;;1.55;;
75616;SDS011;64200;55.426;37.758;2023-02-15T08:24:11;5.95;;;1.38;;
75616;SDS011;64200;55.426;37.758;2023-02-15T08:29:14;3.65;;;1.45;;
75616;SDS011;64200;55.426;37.758;2023-02-15T08:34:17;6.63;;;1.95;;
75616;SDS011;64200;55.426;37.758;2023-02-15T08:39:19;4.68;;;2.28;;
75616;SDS011;64200;55.426;37.758;2023-02-15T08:44:20;6.75;;;1.77;;
75616;SDS011;64200;55.426;37.758;2023-02-15T08:53:12;7.57;;;1.77;;
75616;SDS011;64200;55.426;37.758;2023-02-15T08:58:12;4.43;;;1.83;;
75616;SDS011;64200;55.426;37.758;2023-02-15T09:03:13;2.15;;;1.40;;
75616;SDS011;64200;55.426;37.758;2023-02-15T09:08:13;2.88;;;1.35;;
75616;SDS011;64200;55.426;37.758;2023-02-15T09:13:14;7.03;;;2.03;;
75616;SDS011;64200;55.426;37.758;2023-02-15T09:18:14;5.35;;;1.88;;
75616;SDS011;64200;55.426;37.758;2023-02-15T09:23:17;3.55;;;1.48;;
75616;SDS011;64200;55.426;37.758;2023-02-15T09:28:17;5.43;;;1.50;;
75616;SDS011;64200;55.426;37.758;2023-02-15T09:33:18;4.35;;;1.77;;
75616;SDS011;64200;55.426;37.758;2023-02-15T09:38:18;5.88;;;1.92;;
75616;SDS011;64200;55.426;37.758;2023-02-15T09:43:22;4.53;;;2.00;;
75616;SDS011;64200;55.426;37.758;2023-02-15T09:48:38;7.65;;;2.78;;
75616;SDS011;64200;55.426;37.758;2023-02-15T09:53:45;4.90;;;1.65;;
75616;SDS011;64200;55.426;37.758;2023-02-15T10:04:37;5.13;;;1.90;;
75616;SDS011;64200;55.426;37.758;2023-02-15T10:31:22;3.78;;;1.33;;
75616;SDS011;64200;55.426;37.758;2023-02-15T10:57:20;4.13;;;0.75;;
75616;SDS011;64200;55.426;37.758;2023-02-15T11:02:31;2.50;;;0.85;;
75616;SDS011;64200;55.426;37.758;2023-02-15T11:07:40;3.20;;;0.75;;
75616;SDS011;64200;55.426;37.758;2023-02-15T11:12:43;1.02;;;0.50;;
75616;SDS011;64200;55.426;37.758;2023-02-15T11:17:49;1.98;;;1.27;;
75616;SDS011;64200;55.426;37.758;2023-02-15T11:23:13;2.13;;;0.50;;
75616;SDS011;64200;55.426;37.758;2023-02-15T11:28:21;3.33;;;0.73;;
75616;SDS011;64200;55.426;37.758;2023-02-15T11:33:29;2.45;;;0.95;;
75616;SDS011;64200;55.426;37.758;2023-02-15T11:38:37;1.85;;;0.70;;
75616;SDS011;64200;55.426;37.758;2023-02-15T11:43:48;4.18;;;0.65;;
75616;SDS011;64200;55.426;37.758;2023-02-15T11:48:54;5.20;;;1.48;;
75616;SDS011;64200;55.426;37.758;2023-02-15T11:53:54;1.00;;;0.68;;
75616;SDS011;64200;55.426;37.758;2023-02-15T11:59:17;2.53;;;1.17;;
75616;SDS011;64200;55.426;37.758;2023-02-15T12:04:26;1.73;;;0.80;;
75616;SDS011;64200;55.426;37.758;2023-02-15T12:09:34;4.15;;;1.20;;
75616;SDS011;64200;55.426;37.758;2023-02-15T12:14:48;2.72;;;0.95;;
75616;SDS011;64200;55.426;37.758;2023-02-15T12:19:54;3.45;;;1.25;;
75616;SDS011;64200;55.426;37.758;2023-02-15T12:25:01;1.77;;;0.93;;
75616;SDS011;64200;55.426;37.758;2023-02-15T12:30:06;3.67;;;1.13;;
75616;SDS011;64200;55.426;37.758;2023-02-15T12:35:32;1.73;;;1.05;;
75616;SDS011;64200;55.426;37.758;2023-02-15T12:40:34;1.75;;;0.77;;
75616;SDS011;64200;55.426;37.758;2023-02-15T12:45:36;1.98;;;0.65;;
75616;SDS011;64200;55.426;37.758;2023-02-15T12:50:41;2.58;;;0.93;;
75616;SDS011;64200;55.426;37.758;2023-02-15T12:56:18;1.25;;;0.70;;
75616;SDS011;64200;55.426;37.758;2023-02-15T13:06:17;1.95;;;0.63;;
75616;SDS011;64200;55.426;37.758;2023-02-15T13:11:23;2.45;;;1.05;;
75616;SDS011;64200;55.426;37.758;2023-02-15T13:16:36;1.10;;;0.80;;
75616;SDS011;64200;55.426;37.758;2023-02-15T13:21:39;1.83;;;1.10;;
75616;SDS011;64200;55.426;37.758;2023-02-15T13:26:43;2.83;;;0.68;;
75616;SDS011;64200;55.426;37.758;2023-02-15T13:31:45;1.15;;;0.70;;
75616;SDS011;64200;55.426;37.758;2023-02-15T13:36:51;2.35;;;0.73;;
75616;SDS011;64200;55.426;37.758;2023-02-15T13:42:22;1.42;;;0.70;;
75616;SDS011;64200;55.426;37.758;2023-02-15T13:52:54;2.15;;;0.85;;
75616;SDS011;64200;55.426;37.758;2023-02-15T14:08:56;0.68;;;0.60;;
75616;SDS011;64200;55.426;37.758;2023-02-15T14:20:08;1.42;;;0.40;;
75616;SDS011;64200;55.426;37.758;2023-02-15T14:24:58;1.50;;;0.68;;
75616;SDS011;64200;55.426;37.758;2023-02-15T14:30:18;2.25;;;0.60;;
75616;SDS011;64200;55.426;37.758;2023-02-15T14:35:21;1.50;;;0.57;;
75616;SDS011;64200;55.426;37.758;2023-02-15T14:40:43;1.15;;;0.60;;
75616;SDS011;64200;55.426;37.758;2023-02-15T14:51:09;0.85;;;0.60;;
75616;SDS011;64200;55.426;37.758;2023-02-15T15:01:10;4.87;;;0.67;;
75616;SDS011;64200;55.426;37.758;2023-02-15T15:06:23;1.45;;;0.60;;
75616;SDS011;64200;55.426;37.758;2023-02-15T15:26:46;2.15;;;0.32;;
75616;SDS011;64200;55.426;37.758;2023-02-15T15:31:51;1.88;;;0.55;;
75616;SDS011;64200;55.426;37.758;2023-02-15T15:37:10;1.60;;;0.50;;
75616;SDS011;64200;55.426;37.758;2023-02-15T15:42:48;1.33;;;0.50;;
75616;SDS011;64200;55.426;37.758;2023-02-15T15:48:17;2.05;;;0.60;;
75616;SDS011;64200;55.426;37.758;2023-02-15T15:53:27;2.85;;;0.75;;
75616;SDS011;64200;55.426;37.758;2023-02-15T15:58:31;0.95;;;0.55;;
75616;SDS011;64200;55.426;37.758;2023-02-15T16:03:34;2.40;;;0.75;;
75616;SDS011;64200;55.426;37.758;2023-02-15T16:08:36;0.88;;;0.60;;
75616;SDS011;64200;55.426;37.758;2023-02-15T16:13:40;1.10;;;0.40;;
75616;SDS011;64200;55.426;37.758;2023-02-15T16:18:41;1.60;;;0.40;;
75616;SDS011;64200;55.426;37.758;2023-02-15T16:29:32;3.20;;;0.85;;
75616;SDS011;64200;55.426;37.758;2023-02-15T16:34:34;3.20;;;0.65;;
75616;SDS011;64200;55.426;37.758;2023-02-15T16:39:34;1.33;;;0.85;;
75616;SDS011;64200;55.426;37.758;2023-02-15T16:44:41;2.22;;;0.60;;
75616;SDS011;64200;55.426;37.758;2023-02-15T16:49:43;0.90;;;0.60;;
75616;SDS011;64200;55.426;37.758;2023-02-15T16:59:58;1.73;;;0.60;;
75616;SDS011;64200;55.426;37.758;2023-02-15T17:21:08;2.30;;;0.83;;
75616;SDS011;64200;55.426;37.758;2023-02-15T17:26:15;2.20;;;0.80;;
75616;SDS011;64200;55.426;37.758;2023-02-15T17:31:20;1.52;;;0.73;;
75616;SDS011;64200;55.426;37.758;2023-02-15T17:36:22;1.38;;;0.70;;
75616;SDS011;64200;55.426;37.758;2023-02-15T17:41:30;1.45;;;0.60;;
75616;SDS011;64200;55.426;37.758;2023-02-15T17:46:34;1.50;;;0.80;;
75616;SDS011;64200;55.426;37.758;2023-02-15T17:51:37;6.03;;;1.58;;
75616;SDS011;64200;55.426;37.758;2023-02-15T17:56:37;1.70;;;0.82;;
75616;SDS011;64200;55.426;37.758;2023-02-15T18:01:46;1.27;;;0.68;;
75616;SDS011;64200;55.426;37.758;2023-02-15T18:07:08;2.42;;;1.00;;
75616;SDS011;64200;55.426;37.758;2023-02-15T18:12:31;3.25;;;1.00;;
75616;SDS011;64200;55.426;37.758;2023-02-15T18:17:36;1.23;;;0.75;;
75616;SDS011;64200;55.426;37.758;2023-02-15T18:22:39;2.10;;;0.80;;
75616;SDS011;64200;55.426;37.758;2023-02-15T18:27:40;1.65;;;0.90;;
75616;SDS011;64200;55.426;37.758;2023-02-15T18:32:41;1.67;;;0.82;;
75616;SDS011;64200;55.426;37.758;2023-02-15T18:37:42;1.88;;;1.10;;
75616;SDS011;64200;55.426;37.758;2023-02-15T18:42:45;2.63;;;0.93;;
75616;SDS011;64200;55.426;37.758;2023-02-15T18:47:48;5.85;;;2.03;;
75616;SDS011;64200;55.426;37.758;2023-02-15T18:52:48;1.48;;;1.08;;
75616;SDS011;64200;55.426;37.758;2023-02-15T18:57:51;1.98;;;1.35;;
75616;SDS011;64200;55.426;37.758;2023-02-15T19:02:54;2.38;;;0.80;;
75616;SDS011;64200;55.426;37.758;2023-02-15T19:07:56;1.25;;;0.80;;
75616;SDS011;64200;55.426;37.758;2023-02-15T19:12:58;3.47;;;1.05;;
75616;SDS011;64200;55.426;37.758;2023-02-15T19:17:59;1.48;;;1.08;;
75616;SDS011;64200;55.426;37.758;2023-02-15T19:23:00;3.87;;;1.40;;
75616;SDS011;64200;55.426;37.758;2023-02-15T19:28:02;2.33;;;1.27;;
75616;SDS011;64200;55.426;37.758;2023-02-15T19:33:16;3.95;;;1.38;;
75616;SDS011;64200;55.426;37.758;2023-02-15T19:38:19;2.38;;;1.20;;
75616;SDS011;64200;55.426;37.758;2023-02-15T19:43:29;3.60;;;1.08;;
75616;SDS011;64200;55.426;37.758;2023-02-15T19:48:30;3.13;;;1.00;;
75616;SDS011;64200;55.426;37.758;2023-02-15T19:53:31;2.58;;;1.27;;
75616;SDS011;64200;55.426;37.758;2023-02-15T19:58:31;2.10;;;1.63;;
75616;SDS011;64200;55.426;37.758;2023-02-15T20:03:32;3.25;;;1.55;;
75616;SDS011;64200;55.426;37.758;2023-02-15T20:08:33;2.72;;;1.42;;
75616;SDS011;64200;55.426;37.758;2023-02-15T20:13:34;3.08;;;1.50;;
75616;SDS011;64200;55.426;37.758;2023-02-15T20:18:34;2.60;;;1.30;;
75616;SDS011;64200;55.426;37.758;2023-02-15T20:23:35;3.13;;;1.33;;
75616;SDS011;64200;55.426;37.758;2023-02-15T20:28:36;3.35;;;1.52;;
75616;SDS011;64200;55.426;37.758;2023-02-15T20:33:36;1.25;;;1.02;;
75616;SDS011;64200;55.426;37.758;2023-02-15T20:38:37;2.90;;;1.13;;
75616;SDS011;64200;55.426;37.758;2023-02-15T20:43:38;4.72;;;1.17;;
75616;SDS011;64200;55.426;37.758;2023-02-15T20:48:39;5.32;;;1.80;;
75616;SDS011;64200;55.426;37.758;2023-02-15T20:53:42;5.05;;;1.30;;
75616;SDS011;64200;55.426;37.758;2023-02-15T20:58:43;3.47;;;1.20;;
75616;SDS011;64200;55.426;37.758;2023-02-15T21:03:43;2.50;;;1.23;;
75616;SDS011;64200;55.426;37.758;2023-02-15T21:08:45;5.90;;;1.50;;
75616;SDS011;64200;55.426;37.758;2023-02-15T21:13:46;3.17;;;1.55;;
75616;SDS011;64200;55.426;37.758;2023-02-15T21:18:47;2.15;;;1.10;;
75616;SDS011;64200;55.426;37.758;2023-02-15T21:23:48;3.73;;;1.23;;
75616;SDS011;64200;55.426;37.758;2023-02-15T21:28:51;3.25;;;1.70;;
75616;SDS011;64200;55.426;37.758;2023-02-15T21:33:51;2.30;;;1.40;;
75616;SDS011;64200;55.426;37.758;2023-02-15T21:38:52;4.53;;;1.65;;
75616;SDS011;64200;55.426;37.758;2023-02-15T21:43:53;1.92;;;1.35;;
75616;SDS011;64200;55.426;37.758;2023-02-15T21:49:12;3.67;;;1.40;;
75616;SDS011;64200;55.426;37.758;2023-02-15T21:54:13;3.95;;;1.60;;
75616;SDS011;64200;55.426;37.758;2023-02-15T21:59:16;2.35;;;1.10;;
75616;SDS011;64200;55.426;37.758;2023-02-15T22:04:35;2.67;;;1.30;;
75616;SDS011;64200;55.426;37.758;2023-02-15T22:09:35;5.07;;;1.25;;
75616;SDS011;64200;55.426;37.758;2023-02-15T22:14:37;3.30;;;1.25;;
75616;SDS011;64200;55.426;37.758;2023-02-15T22:19:40;2.33;;;1.00;;
75616;SDS011;64200;55.426;37.758;2023-02-15T22:24:41;3.22;;;1.15;;
75616;SDS011;64200;55.426;37.758;2023-02-15T22:29:43;1.83;;;1.00;;
75616;SDS011;64200;55.426;37.758;2023-02-15T22:34:44;3.10;;;1.02;;
75616;SDS011;64200;55.426;37.758;2023-02-15T22:39:45;2.65;;;1.20;;
75616;SDS011;64200;55.426;37.758;2023-02-15T22:44:46;2.00;;;1.08;;
75616;SDS011;64200;55.426;37.758;2023-02-15T22:49:47;4.63;;;1.40;;
75616;SDS011;64200;55.426;37.758;2023-02-15T22:54:48;1.80;;;1.00;;
75616;SDS011;64200;55.426;37.758;2023-02-15T22:59:48;1.43;;;0.87;;
75616;SDS011;64200;55.426;37.758;2023-02-15T23:04:49;2.65;;;1.13;;
75616;SDS011;64200;55.426;37.758;2023-02-15T23:09:49;2.45;;;1.08;;
75616;SDS011;64200;55.426;37.758;2023-02-15T23:14:50;1.33;;;0.93;;
75616;SDS011;64200;55.426;37.758;2023-02-15T23:19:52;1.27;;;0.70;;
75616;SDS011;64200;55.426;37.758;2023-02-15T23:24:53;2.07;;;1.00;;
75616;SDS011;64200;55.426;37.758;2023-02-15T23:29:53;2.38;;;1.25;;
75616;SDS011;64200;55.426;37.758;2023-02-15T23:34:54;1.57;;;0.80;;
75616;SDS011;64200;55.426;37.758;2023-02-15T23:39:54;1.90;;;1.07;;
75616;SDS011;64200;55.426;37.758;2023-02-15T23:45:18;1.65;;;0.80;;
75616;SDS011;64200;55.426;37.758;2023-02-15T23:50:25;1.73;;;0.80;;
75616;SDS011;64200;55.426;37.758;2023-02-15T23:55:36;0.80;;;0.60;;
